Time;durP1;ratioP1;P1;durP2;ratioP2;P2;SDS_P1;SDS_P2;PMS_P1;PMS_P2;Temp;Humidity;BMP_temperature;BMP_pressure;BME280_temperature;BME280_humidity;BME280_pressure;Samples;Min_cycle;Max_cycle;Signal;HPM_P1;HPM_P2
2022/10/28 00:01:13;;;;;;;27.98;24.95;;;17.90;99.40;;;;;;5042223;28;20036;-85
2022/10/28 00:03:41;;;;;;;31.85;23.55;;;18.00;99.40;;;;;;5063416;28;20047;-85
2022/10/28 00:06:11;;;;;;;26.52;24.00;;;17.90;99.50;;;;;;5053229;28;20037;-85
2022/10/28 00:08:37;;;;;;;29.02;26.08;;;17.80;99.90;;;;;;5053604;28;20047;-85
2022/10/28 00:11:14;;;;;;;27.83;25.02;;;17.70;99.90;;;;;;5030757;28;20040;-84
2022/10/28 00:13:41;;;;;;;30.30;27.20;;;17.60;99.90;;;;;;5036503;28;20036;-84
2022/10/28 00:16:19;;;;;;;29.13;26.10;;;17.70;99.90;;;;;;5043533;28;20515;-85
2022/10/28 00:18:45;;;;;;;27.85;25.48;;;17.80;99.90;;;;;;5036943;28;20107;-85
2022/10/28 00:21:17;;;;;;;27.60;25.05;;;17.70;99.90;;;;;;5045625;28;20032;-85
2022/10/28 00:23:43;;;;;;;29.65;27.08;;;17.60;99.90;;;;;;5053257;28;20370;-85
2022/10/28 00:26:17;;;;;;;31.77;25.77;;;17.50;99.90;;;;;;5064533;28;20405;-85
2022/10/28 00:28:51;;;;;;;32.47;29.20;;;17.40;99.90;;;;;;5041084;28;20027;-85
2022/10/28 00:31:19;;;;;;;33.72;30.55;;;17.40;99.90;;;;;;5029067;28;20043;-85
2022/10/28 00:33:45;;;;;;;33.55;30.40;;;17.20;99.90;;;;;;5085540;28;20028;-85
2022/10/28 00:36:13;;;;;;;39.90;36.15;;;17.10;99.90;;;;;;5041454;28;20457;-84
2022/10/28 00:38:39;;;;;;;40.45;37.20;;;17.00;99.90;;;;;;5043867;28;20500;-85
2022/10/28 00:41:05;;;;;;;35.67;32.38;;;17.20;99.90;;;;;;5045163;28;20033;-85
2022/10/28 00:43:37;;;;;;;35.95;32.60;;;17.30;99.90;;;;;;5051614;28;20462;-85
2022/10/28 00:46:03;;;;;;;33.58;30.88;;;17.30;99.90;;;;;;5019849;28;20037;-85
2022/10/28 00:48:29;;;;;;;30.52;27.95;;;17.30;99.90;;;;;;5053079;28;20044;-85
2022/10/28 00:50:55;;;;;;;32.65;29.25;;;17.40;99.90;;;;;;5037193;28;20036;-85
2022/10/28 00:53:27;;;;;;;37.22;33.92;;;17.50;99.90;;;;;;5037660;28;20055;-85
2022/10/28 00:55:53;;;;;;;33.78;30.50;;;17.50;99.90;;;;;;5029592;28;20032;-85
2022/10/28 00:58:21;;;;;;;34.58;31.33;;;17.40;99.90;;;;;;5040270;28;20044;-85
2022/10/28 01:00:47;;;;;;;41.70;37.88;;;17.50;99.90;;;;;;5042796;28;20032;-84
2022/10/28 01:03:14;;;;;;;41.78;38.85;;;17.40;99.90;;;;;;5070296;28;20436;-85
2022/10/28 01:05:41;;;;;;;42.47;38.90;;;17.40;99.90;;;;;;5019730;28;20044;-85
2022/10/28 01:08:07;;;;;;;44.08;40.80;;;17.30;99.90;;;;;;5036297;28;20611;-85
2022/10/28 01:10:55;;;;;;;40.63;37.15;;;17.30;99.90;;;;;;5052983;28;20047;-86
2022/10/28 01:13:40;;;;;;;39.50;36.15;;;17.40;99.90;;;;;;5076119;28;20520;-85
2022/10/28 01:16:45;;;;;;;42.42;38.90;;;17.40;99.90;;;;;;5092628;28;20504;-85
2022/10/28 01:19:42;;;;;;;40.67;37.45;;;17.50;99.90;;;;;;5071086;28;20036;-85
2022/10/28 01:22:32;;;;;;;43.35;39.88;;;17.50;99.90;;;;;;5077294;28;20063;-85
2022/10/28 01:25:26;;;;;;;42.17;38.55;;;17.40;99.90;;;;;;5056284;28;20047;-85
2022/10/28 01:28:09;;;;;;;43.05;39.80;;;17.40;99.90;;;;;;5074171;28;20358;-85
2022/10/28 01:31:13;;;;;;;42.00;38.42;;;17.40;99.90;;;;;;5047700;28;20044;-84
2022/10/28 01:34:01;;;;;;;42.95;39.35;;;17.40;99.90;;;;;;5086384;28;20039;-85
2022/10/28 01:36:31;;;;;;;44.03;40.10;;;17.40;99.90;;;;;;5072923;28;20047;-85
2022/10/28 01:39:23;;;;;;;42.33;38.67;;;17.40;99.90;;;;;;5075254;28;20039;-85
2022/10/28 01:42:15;;;;;;;44.67;40.65;;;17.40;99.90;;;;;;5056077;28;20509;-84
2022/10/28 01:44:54;;;;;;;43.47;39.72;;;17.40;99.90;;;;;;5051984;28;20040;-84
2022/10/28 01:48:00;;;;;;;41.08;37.78;;;17.50;99.90;;;;;;5055348;28;20048;-84
2022/10/28 01:50:48;;;;;;;42.47;38.35;;;17.60;99.90;;;;;;4992570;28;20041;-85
2022/10/28 01:53:17;;;;;;;42.78;39.10;;;17.60;99.90;;;;;;4975776;28;20046;-85
2022/10/28 01:55:45;;;;;;;41.35;38.25;;;17.60;99.90;;;;;;4978898;28;20065;-84
2022/10/28 01:58:13;;;;;;;40.63;37.33;;;17.50;99.90;;;;;;4961192;28;20434;-84
2022/10/28 02:00:40;;;;;;;40.97;37.05;;;17.40;99.90;;;;;;4992747;28;20538;-85
2022/10/28 02:03:07;;;;;;;43.42;39.60;;;17.40;99.90;;;;;;4983690;28;20034;-85
2022/10/28 02:05:47;;;;;;;38.88;35.75;;;17.40;99.90;;;;;;4995869;28;20046;-85
2022/10/28 02:08:26;;;;;;;42.28;38.83;;;17.40;99.90;;;;;;4974464;28;20041;-86
2022/10/28 02:11:21;;;;;;;40.65;37.35;;;17.40;99.90;;;;;;5007267;28;20025;-85
2022/10/28 02:14:22;;;;;;;38.60;35.28;;;17.50;99.90;;;;;;4998040;28;20038;-85
2022/10/28 02:17:12;;;;;;;32.30;29.35;;;17.50;99.90;;;;;;5006694;28;20450;-85
2022/10/28 02:19:48;;;;;;;35.83;32.25;;;17.30;99.90;;;;;;4992834;28;20586;-84
2022/10/28 02:22:30;;;;;;;35.00;31.70;;;17.30;99.90;;;;;;5048236;28;20397;-85
2022/10/28 02:25:17;;;;;;;37.10;33.78;;;17.20;99.90;;;;;;5055320;28;20036;-86
2022/10/28 02:28:16;;;;;;;35.50;32.30;;;17.20;99.90;;;;;;5044985;28;20041;-86
2022/10/28 02:31:02;;;;;;;36.75;33.10;;;17.20;99.90;;;;;;5075645;28;20477;-86
2022/10/28 02:33:30;;;;;;;35.83;32.60;;;17.30;99.90;;;;;;5050453;28;20055;-84
2022/10/28 02:36:11;;;;;;;37.65;34.08;;;17.20;99.90;;;;;;5052356;28;20579;-85
2022/10/28 02:38:49;;;;;;;35.70;32.28;;;17.10;99.90;;;;;;5057901;28;20033;-85
2022/10/28 02:41:17;;;;;;;36.90;33.50;;;17.20;99.90;;;;;;5048938;28;20516;-85
2022/10/28 02:43:43;;;;;;;36.63;32.75;;;17.30;99.90;;;;;;5062086;28;20036;-85
2022/10/28 02:46:09;;;;;;;38.70;35.42;;;17.30;99.90;;;;;;5044979;28;20047;-85
2022/10/28 02:48:37;;;;;;;40.15;36.50;;;17.30;99.90;;;;;;5020759;28;20033;-85
2022/10/28 02:51:08;;;;;;;39.50;35.80;;;17.40;99.90;;;;;;5056303;28;20025;-84
2022/10/28 02:53:40;;;;;;;38.80;35.60;;;17.30;99.90;;;;;;5039835;28;20540;-86
2022/10/28 02:56:06;;;;;;;35.13;32.53;;;17.30;99.90;;;;;;5057151;28;20392;-82
2022/10/28 02:58:39;;;;;;;37.28;33.28;;;17.40;99.90;;;;;;5051554;28;20051;-82
2022/10/28 03:01:06;;;;;;;35.15;32.45;;;17.50;99.90;;;;;;5047321;28;20579;-82
2022/10/28 03:03:32;;;;;;;33.22;29.92;;;17.40;99.90;;;;;;5030294;28;20048;-83
2022/10/28 03:05:58;;;;;;;37.45;33.50;;;17.40;99.90;;;;;;5055081;28;20405;-82
2022/10/28 03:08:24;;;;;;;32.42;29.92;;;17.20;99.90;;;;;;5031191;28;20039;-81
2022/10/28 03:10:50;;;;;;;35.55;32.47;;;17.20;99.90;;;;;;5053821;28;20048;-84
2022/10/28 03:13:16;;;;;;;33.13;29.85;;;17.20;99.90;;;;;;5039378;28;20043;-82
2022/10/28 03:15:43;;;;;;;32.50;29.13;;;17.10;99.90;;;;;;5042179;28;20051;-83
2022/10/28 03:18:09;;;;;;;35.03;31.95;;;17.30;99.90;;;;;;5059551;28;20436;-83
2022/10/28 03:20:35;;;;;;;36.28;32.95;;;17.20;99.90;;;;;;5067577;28;20051;-83
2022/10/28 03:23:01;;;;;;;34.83;31.58;;;17.10;99.90;;;;;;5063898;28;20035;-83
2022/10/28 03:25:27;;;;;;;33.28;30.50;;;17.20;99.90;;;;;;5074057;28;20116;-83
2022/10/28 03:27:53;;;;;;;33.50;30.83;;;17.30;99.90;;;;;;5053512;28;20040;-83
2022/10/28 03:30:19;;;;;;;32.88;30.00;;;17.40;99.90;;;;;;5090922;28;20027;-82
2022/10/28 03:32:45;;;;;;;36.50;33.63;;;17.40;99.90;;;;;;5038338;28;20043;-83
2022/10/28 03:35:11;;;;;;;33.35;30.42;;;17.40;99.90;;;;;;5034973;28;20044;-82
2022/10/28 03:37:41;;;;;;;36.78;33.53;;;17.40;99.90;;;;;;5038787;28;20032;-82
2022/10/28 03:40:07;;;;;;;31.52;28.75;;;17.20;99.90;;;;;;5056606;28;20067;-83
2022/10/28 03:42:33;;;;;;;29.80;27.05;;;17.10;99.90;;;;;;5064948;28;20044;-82
2022/10/28 03:44:59;;;;;;;32.67;29.73;;;17.20;99.90;;;;;;5039279;28;20654;-85
2022/10/28 03:47:25;;;;;;;31.20;28.40;;;17.20;99.90;;;;;;5058218;28;20044;-85
2022/10/28 03:49:51;;;;;;;32.53;29.15;;;17.20;99.90;;;;;;5053975;28;20504;-84
2022/10/28 03:52:18;;;;;;;32.90;29.60;;;17.20;99.90;;;;;;5058157;28;20039;-86
2022/10/28 03:54:44;;;;;;;30.90;27.88;;;17.20;99.90;;;;;;5036850;28;20037;-86
2022/10/28 03:57:10;;;;;;;27.98;25.90;;;17.30;99.90;;;;;;5037159;28;20052;-87
2022/10/28 03:59:36;;;;;;;28.77;26.13;;;17.30;99.90;;;;;;5067949;28;20028;-87
2022/10/28 04:02:02;;;;;;;29.00;26.15;;;17.40;99.90;;;;;;5081128;28;20051;-87
2022/10/28 04:04:28;;;;;;;30.75;27.35;;;17.40;99.90;;;;;;5023361;28;20063;-86
2022/10/28 04:06:54;;;;;;;30.85;27.83;;;17.40;99.90;;;;;;5073962;28;20043;-88
2022/10/28 04:09:20;;;;;;;30.73;27.70;;;17.20;99.90;;;;;;5056801;28;20037;-88
2022/10/28 04:11:48;;;;;;;30.00;27.15;;;17.20;99.90;;;;;;5054709;28;20041;-89
2022/10/28 04:14:14;;;;;;;29.92;27.30;;;17.20;99.90;;;;;;5062182;28;20024;-89
2022/10/28 04:16:40;;;;;;;29.48;26.38;;;17.20;99.90;;;;;;5032586;28;20049;-89
2022/10/28 04:19:06;;;;;;;29.13;26.25;;;17.10;99.90;;;;;;5063300;28;20048;-90
2022/10/28 04:21:32;;;;;;;30.23;27.25;;;17.20;99.90;;;;;;5073862;28;20039;-89
2022/10/28 04:23:58;;;;;;;29.20;26.27;;;17.20;99.90;;;;;;5042615;28;20036;-88
2022/10/28 04:26:24;;;;;;;29.23;26.33;;;17.20;99.90;;;;;;5038152;28;20040;-89
2022/10/28 04:28:50;;;;;;;28.10;25.05;;;17.20;99.90;;;;;;5039251;28;20436;-87
2022/10/28 04:31:17;;;;;;;28.83;25.98;;;17.30;99.90;;;;;;5054101;28;20025;-87
2022/10/28 04:33:43;;;;;;;29.30;26.05;;;17.30;99.90;;;;;;5059216;28;20020;-89
2022/10/28 04:36:09;;;;;;;27.58;25.38;;;17.40;99.90;;;;;;5060052;28;20036;-89
2022/10/28 04:38:35;;;;;;;28.20;25.67;;;17.40;99.90;;;;;;5047685;28;20385;-88
2022/10/28 04:41:01;;;;;;;28.67;26.25;;;17.20;99.90;;;;;;5059857;28;20025;-88
2022/10/28 04:43:28;;;;;;;29.48;26.90;;;17.20;99.90;;;;;;5054729;28;20377;-88
2022/10/28 04:45:54;;;;;;;29.15;26.50;;;17.30;99.90;;;;;;5087691;28;20047;-89
2022/10/28 04:48:20;;;;;;;30.88;27.83;;;17.40;99.90;;;;;;5057782;28;20043;-88
2022/10/28 04:50:46;;;;;;;31.63;28.80;;;17.40;99.90;;;;;;5073832;28;20025;-89
2022/10/28 04:53:12;;;;;;;31.75;29.13;;;17.40;99.90;;;;;;5028770;28;20052;-89
2022/10/28 04:55:38;;;;;;;30.42;28.13;;;17.40;99.90;;;;;;5040945;28;20040;-88
2022/10/28 04:58:04;;;;;;;33.13;29.67;;;17.40;99.90;;;;;;5033034;28;20043;-89
2022/10/28 05:00:31;;;;;;;31.98;28.95;;;17.40;99.90;;;;;;5045607;28;20052;-88
2022/10/28 05:03:00;;;;;;;30.67;27.92;;;17.40;99.90;;;;;;5050808;28;20040;-88
2022/10/28 05:05:26;;;;;;;31.58;28.33;;;17.50;99.90;;;;;;5048102;28;20035;-88
2022/10/28 05:07:52;;;;;;;32.00;29.38;;;17.40;99.90;;;;;;5052168;28;20041;-89
2022/10/28 05:10:18;;;;;;;34.15;30.23;;;17.40;99.90;;;;;;5024653;28;20399;-87
2022/10/28 05:12:44;;;;;;;31.20;28.48;;;17.40;99.90;;;;;;5059163;28;20055;-87
2022/10/28 05:15:11;;;;;;;31.35;28.25;;;17.40;99.90;;;;;;5043515;28;20067;-89
2022/10/28 05:17:42;;;;;;;34.05;31.05;;;17.40;99.90;;;;;;5040643;28;20024;-88
2022/10/28 05:20:08;;;;;;;;;;;17.40;99.90;;;;;;5031970;28;20036;-88
2022/10/28 05:22:34;;;;;;;28.27;25.40;;;17.30;99.90;;;;;;5056841;28;19930;-87
2022/10/28 05:25:00;;;;;;;29.90;26.75;;;17.20;99.90;;;;;;5060012;28;20366;-89
2022/10/28 05:27:26;;;;;;;30.38;27.65;;;17.10;99.90;;;;;;5074040;28;20048;-89
2022/10/28 05:29:53;;;;;;;29.08;26.55;;;17.20;99.90;;;;;;5058963;28;20032;-88
2022/10/28 05:32:19;;;;;;;29.90;27.05;;;17.20;99.90;;;;;;5070234;28;20036;-88
2022/10/28 05:34:45;;;;;;;31.10;28.05;;;17.10;99.90;;;;;;5052967;28;20123;-86
2022/10/28 05:37:11;;;;;;;29.17;26.20;;;17.10;99.90;;;;;;5044213;28;20477;-84
2022/10/28 05:39:37;;;;;;;30.52;27.50;;;17.00;99.90;;;;;;5048037;28;20048;-85
2022/10/28 05:42:03;;;;;;;29.42;26.92;;;17.10;99.90;;;;;;5038832;28;20477;-84
2022/10/28 05:44:29;;;;;;;29.58;27.15;;;17.10;99.90;;;;;;5056674;28;20044;-84
2022/10/28 05:46:55;;;;;;;32.53;29.67;;;17.20;99.90;;;;;;5056271;28;20048;-85
2022/10/28 05:49:22;;;;;;;29.98;27.50;;;17.20;99.90;;;;;;5046042;28;20040;-85
2022/10/28 05:51:48;;;;;;;33.17;30.10;;;17.20;99.90;;;;;;5073803;28;20039;-85
2022/10/28 05:54:14;;;;;;;31.75;28.63;;;17.20;99.80;;;;;;5076124;28;20032;-84
2022/10/28 05:56:40;;;;;;;33.65;30.35;;;17.30;99.70;;;;;;5075169;28;20028;-85
2022/10/28 05:59:06;;;;;;;31.88;29.17;;;17.30;99.60;;;;;;5057546;28;20480;-86
2022/10/28 06:01:32;;;;;;;29.67;26.55;;;17.30;99.30;;;;;;5037706;28;20048;-86
2022/10/28 06:03:58;;;;;;;22.55;20.35;;;17.30;99.30;;;;;;5056285;28;20486;-85
2022/10/28 06:06:24;;;;;;;24.33;19.55;;;17.30;99.40;;;;;;5041089;28;20044;-85
2022/10/28 06:08:50;;;;;;;27.08;20.27;;;17.40;99.30;;;;;;5058989;28;20482;-87
2022/10/28 06:11:16;;;;;;;21.63;19.63;;;17.40;99.20;;;;;;5032278;28;20032;-89
2022/10/28 06:13:42;;;;;;;24.02;21.33;;;17.40;99.10;;;;;;5064997;28;20618;-92
2022/10/28 06:16:08;;;;;;;24.10;21.02;;;17.40;99.00;;;;;;5090272;28;20039;-87
2022/10/28 06:18:35;;;;;;;26.73;20.65;;;17.50;98.90;;;;;;5097177;28;20033;-92
2022/10/28 06:21:01;;;;;;;23.42;20.92;;;17.60;98.60;;;;;;5068345;28;20040;-92
2022/10/28 06:23:29;;;;;;;26.05;20.98;;;17.70;98.50;;;;;;5073232;28;20476;-89
2022/10/28 06:25:56;;;;;;;24.52;21.95;;;17.70;98.60;;;;;;5086446;28;20523;-93
2022/10/28 06:28:23;;;;;;;24.30;20.58;;;17.70;98.40;;;;;;5050955;28;20040;-93
2022/10/28 06:30:49;;;;;;;25.75;21.60;;;17.80;98.20;;;;;;5059798;28;20032;-88
2022/10/28 06:33:15;;;;;;;26.60;21.27;;;17.80;98.00;;;;;;5047245;28;20473;-83
2022/10/28 06:35:41;;;;;;;24.25;20.38;;;17.90;97.90;;;;;;5083462;28;20048;-86
2022/10/28 06:38:07;;;;;;;27.42;20.88;;;17.90;97.80;;;;;;5096175;28;20043;-91
2022/10/28 06:40:33;;;;;;;22.02;19.83;;;17.90;97.90;;;;;;5071789;28;20024;-92
2022/10/28 06:43:05;;;;;;;27.67;18.98;;;17.90;98.00;;;;;;5072608;28;20036;-86
2022/10/28 06:45:32;;;;;;;33.00;20.73;;;18.00;97.80;;;;;;5058701;28;20042;-88
2022/10/28 06:48:00;;;;;;;22.42;20.10;;;17.90;97.70;;;;;;5039673;28;20485;-86
2022/10/28 06:50:26;;;;;;;23.65;19.90;;;18.00;97.70;;;;;;5041145;28;20024;-88
2022/10/28 06:52:54;;;;;;;22.85;19.38;;;18.00;97.70;;;;;;5056827;28;20043;-87
2022/10/28 06:55:20;;;;;;;26.60;20.90;;;18.00;98.00;;;;;;5066282;28;20024;-88
2022/10/28 06:57:47;;;;;;;29.85;21.83;;;18.00;97.60;;;;;;5075932;28;20024;-87
2022/10/28 07:00:13;;;;;;;23.95;21.17;;;18.00;97.80;;;;;;5057566;28;20035;-90
2022/10/28 07:02:39;;;;;;;25.25;21.85;;;18.10;97.70;;;;;;5080409;28;20211;-88
2022/10/28 07:05:06;;;;;;;23.85;20.83;;;18.00;97.80;;;;;;5051245;28;20037;-88
2022/10/28 07:07:32;;;;;;;25.77;21.80;;;18.00;97.80;;;;;;5059333;28;20035;-88
2022/10/28 07:09:58;;;;;;;32.58;23.08;;;18.00;98.00;;;;;;5054720;28;20021;-86
2022/10/28 07:12:26;;;;;;;24.55;22.10;;;18.00;98.00;;;;;;5042216;28;20047;-87
2022/10/28 07:14:52;;;;;;;24.63;21.95;;;18.00;98.10;;;;;;5075166;28;20372;-84
2022/10/28 07:17:18;;;;;;;29.08;22.55;;;18.00;98.10;;;;;;5059334;28;20036;-84
2022/10/28 07:19:44;;;;;;;24.85;21.65;;;18.10;98.10;;;;;;5049466;28;20111;-84
2022/10/28 07:22:10;;;;;;;27.63;21.83;;;18.10;98.00;;;;;;5045838;28;20044;-83
2022/10/28 07:24:37;;;;;;;25.10;22.65;;;18.20;97.90;;;;;;5042967;28;20043;-84
2022/10/28 07:27:03;;;;;;;26.65;23.65;;;18.10;98.10;;;;;;5083939;28;20028;-85
2022/10/28 07:29:29;;;;;;;24.60;22.10;;;18.10;98.10;;;;;;5076348;28;20847;-86
2022/10/28 07:31:55;;;;;;;24.83;21.77;;;18.10;98.30;;;;;;5077440;28;20042;-83
2022/10/28 07:34:21;;;;;;;33.50;23.13;;;18.20;98.30;;;;;;5064280;28;20040;-84
2022/10/28 07:36:51;;;;;;;33.20;24.02;;;18.20;98.20;;;;;;5049862;28;20060;-84
2022/10/28 07:39:17;;;;;;;26.92;22.70;;;18.20;98.30;;;;;;5073695;28;20396;-84
2022/10/28 07:41:44;;;;;;;31.55;23.23;;;18.20;98.30;;;;;;5070836;28;20039;-83
2022/10/28 07:44:10;;;;;;;28.52;23.52;;;18.30;98.20;;;;;;5052132;28;20028;-86
2022/10/28 07:46:36;;;;;;;28.83;24.95;;;18.40;98.10;;;;;;5062172;28;20052;-89
2022/10/28 07:49:02;;;;;;;30.83;24.58;;;18.40;98.10;;;;;;5061514;28;20039;-88
2022/10/28 07:51:28;;;;;;;24.42;22.23;;;18.40;98.20;;;;;;5059673;28;20044;-89
2022/10/28 07:53:57;;;;;;;24.95;21.42;;;18.50;98.20;;;;;;5061287;28;20039;-90
2022/10/28 07:56:24;;;;;;;24.13;21.38;;;18.60;98.20;;;;;;5031616;28;20043;-84
2022/10/28 07:58:50;;;;;;;24.40;20.92;;;18.60;98.10;;;;;;5039277;28;20040;-90
2022/10/28 08:01:17;;;;;;;28.00;21.40;;;18.60;98.20;;;;;;5080866;28;20393;-88
2022/10/28 08:03:43;;;;;;;26.98;20.15;;;18.60;98.30;;;;;;5083906;28;20020;-91
2022/10/28 08:06:19;;;;;;;26.17;23.35;;;18.70;98.50;;;;;;5044387;28;20036;-87
2022/10/28 08:08:46;;;;;;;29.00;23.00;;;18.70;98.70;;;;;;5062498;28;20477;-86
2022/10/28 08:11:23;;;;;;;33.17;25.30;;;18.70;98.60;;;;;;5074536;28;20031;-90
2022/10/28 08:13:50;;;;;;;31.98;24.65;;;18.70;99.10;;;;;;5056275;28;20037;-89
2022/10/28 08:16:16;;;;;;;29.30;23.58;;;18.80;98.70;;;;;;5060210;28;20036;-85
2022/10/28 08:18:44;;;;;;;28.30;23.70;;;18.90;98.70;;;;;;5050771;28;20043;-90
2022/10/28 08:21:10;;;;;;;36.38;23.92;;;19.00;98.80;;;;;;5042175;28;20036;-91
2022/10/28 08:23:37;;;;;;;28.50;23.30;;;19.10;98.70;;;;;;5076047;28;20201;-91
2022/10/28 08:26:03;;;;;;;27.42;22.58;;;19.20;98.60;;;;;;5058604;28;20041;-88
2022/10/28 08:28:29;;;;;;;30.73;22.33;;;19.30;98.50;;;;;;5041689;28;20043;-89
2022/10/28 08:31:00;;;;;;;28.70;20.98;;;19.40;98.40;;;;;;5040967;28;20047;-91
2022/10/28 08:33:26;;;;;;;29.65;23.33;;;19.50;98.50;;;;;;5066817;28;20508;-88
2022/10/28 08:35:52;;;;;;;28.90;22.75;;;19.50;98.40;;;;;;5052483;28;20051;-86
2022/10/28 08:38:18;;;;;;;31.55;23.50;;;19.50;98.40;;;;;;5049585;28;20024;-87
2022/10/28 08:41:03;;;;;;;29.45;23.02;;;19.50;98.50;;;;;;5057228;28;20067;-86
2022/10/28 08:43:54;;;;;;;29.63;22.00;;;19.40;98.50;;;;;;5075408;28;20366;-90
2022/10/28 08:47:12;;;;;;;36.50;22.10;;;19.60;98.20;;;;;;5070556;28;20516;-87
2022/10/28 08:49:39;;;;;;;31.55;21.10;;;19.70;98.00;;;;;;5012786;28;20046;-85
2022/10/28 08:52:15;;;;;;;32.42;23.58;;;19.60;98.20;;;;;;4983082;28;20038;-85
2022/10/28 08:54:46;;;;;;;27.13;22.20;;;19.60;98.20;;;;;;4992368;28;20046;-83
2022/10/28 08:57:34;;;;;;;31.70;21.52;;;19.60;98.30;;;;;;4985077;28;20042;-85
2022/10/28 09:00:02;;;;;;;26.35;19.45;;;19.60;98.40;;;;;;4932784;29;20052;-85
2022/10/28 09:02:30;;;;;;;32.58;21.08;;;19.60;98.60;;;;;;4917968;29;20417;-85
2022/10/28 09:05:01;;;;;;;28.42;20.63;;;19.60;98.60;;;;;;4915920;29;20044;-85
2022/10/28 09:07:27;;;;;;;;;;;19.60;98.40;;;;;;4914390;29;20048;-83
2022/10/28 09:09:53;;;;;;;26.67;20.23;;;19.70;98.40;;;;;;4919729;29;20000;-87
2022/10/28 09:12:40;;;;;;;29.65;20.30;;;19.70;98.50;;;;;;4917050;29;20047;-87
2022/10/28 09:15:16;;;;;;;29.02;21.77;;;19.80;98.50;;;;;;4920199;28;20032;-92
2022/10/28 09:17:53;;;;;;;32.55;21.02;;;19.80;98.30;;;;;;4925933;29;20082;-86
2022/10/28 09:20:22;;;;;;;31.20;21.05;;;19.90;98.60;;;;;;4919136;29;20039;-89
2022/10/28 09:22:54;;;;;;;30.70;20.73;;;19.90;98.70;;;;;;4917689;29;20040;-91
2022/10/28 09:25:31;;;;;;;29.77;20.70;;;20.00;98.60;;;;;;4914608;28;20042;-92
2022/10/28 09:28:15;;;;;;;27.83;21.73;;;20.10;98.50;;;;;;4965673;28;20527;-82
2022/10/28 09:30:54;;;;;;;28.08;22.75;;;20.20;98.50;;;;;;4962052;28;20548;-83
2022/10/28 09:33:53;;;;;;;24.77;20.55;;;20.30;98.40;;;;;;4980444;28;20030;-83
2022/10/28 09:36:26;;;;;;;25.85;22.35;;;20.30;98.10;;;;;;5000539;28;20030;-83
2022/10/28 09:38:54;;;;;;;27.15;23.23;;;20.40;98.30;;;;;;5025784;28;20033;-83
2022/10/28 09:41:24;;;;;;;30.23;24.10;;;20.40;98.10;;;;;;5052331;28;20033;-85
2022/10/28 09:43:56;;;;;;;26.35;23.55;;;20.50;98.10;;;;;;5052182;28;20017;-84
2022/10/28 09:46:23;;;;;;;26.08;21.27;;;20.60;98.10;;;;;;5054712;28;20044;-84
2022/10/28 09:48:54;;;;;;;39.58;27.65;;;20.60;97.90;;;;;;5042228;28;20037;-87
2022/10/28 09:51:33;;;;;;;27.38;23.35;;;20.70;97.70;;;;;;5059836;28;20029;-83
2022/10/28 09:54:00;;;;;;;27.00;23.13;;;20.70;97.80;;;;;;5034698;28;20481;-91
2022/10/28 09:56:27;;;;;;;26.75;23.15;;;20.80;98.00;;;;;;5055053;28;20037;-87
2022/10/28 09:58:53;;;;;;;25.48;22.63;;;20.80;98.10;;;;;;5050940;28;20049;-90
2022/10/28 10:01:19;;;;;;;28.75;25.55;;;20.90;98.10;;;;;;5036212;28;20390;-92
2022/10/28 10:03:49;;;;;;;27.50;23.23;;;21.10;97.80;;;;;;5054948;28;20044;-90
2022/10/28 10:06:28;;;;;;;29.30;26.03;;;21.20;97.50;;;;;;5041971;28;20081;-89
2022/10/28 10:08:55;;;;;;;30.70;25.08;;;21.20;97.30;;;;;;5064560;28;20048;-91
2022/10/28 10:11:27;;;;;;;27.05;24.25;;;21.30;97.20;;;;;;5055438;28;20454;-91
2022/10/28 10:13:53;;;;;;;27.98;25.33;;;21.30;96.70;;;;;;5063598;28;20468;-93
2022/10/28 10:16:40;;;;;;;29.73;24.77;;;21.50;96.70;;;;;;5038036;28;20041;-91
2022/10/28 10:19:07;;;;;;;27.17;25.17;;;21.50;96.60;;;;;;5064865;28;20036;-91
2022/10/28 10:21:41;;;;;;;30.33;27.42;;;21.50;96.70;;;;;;5054293;28;20029;-87
2022/10/28 10:24:33;;;;;;;31.55;28.77;;;21.60;96.90;;;;;;5056373;28;20033;-89
2022/10/28 10:27:01;;;;;;;30.27;27.52;;;21.60;96.40;;;;;;5071832;28;20040;-90
2022/10/28 10:29:27;;;;;;;31.52;28.75;;;21.70;96.30;;;;;;5056160;28;20051;-88
2022/10/28 10:32:23;;;;;;;29.52;26.83;;;21.80;96.00;;;;;;5045811;28;20033;-86
2022/10/28 10:34:59;;;;;;;35.28;32.05;;;21.90;96.10;;;;;;5034294;28;20033;-84
2022/10/28 10:37:25;;;;;;;32.45;29.67;;;21.90;95.80;;;;;;5048243;28;20067;-84
2022/10/28 10:40:22;;;;;;;31.80;29.02;;;21.90;95.30;;;;;;5062933;28;20029;-90
2022/10/28 10:42:48;;;;;;;31.27;28.40;;;21.80;95.30;;;;;;5052408;28;20040;-80
2022/10/28 10:45:14;;;;;;;33.05;29.73;;;21.80;95.60;;;;;;5035624;28;20036;-88
2022/10/28 10:47:41;;;;;;;30.50;27.88;;;21.70;95.40;;;;;;5055770;28;20040;-84
2022/10/28 10:50:20;;;;;;;29.50;26.60;;;21.60;95.50;;;;;;5033596;28;20040;-81
2022/10/28 10:52:57;;;;;;;29.00;26.33;;;21.60;95.70;;;;;;5058408;28;20036;-81
2022/10/28 10:55:37;;;;;;;24.80;22.55;;;21.60;95.60;;;;;;5050149;28;20398;-81
2022/10/28 10:58:04;;;;;;;28.67;26.25;;;21.50;95.50;;;;;;5023170;28;20041;-81
2022/10/28 11:00:34;;;;;;;27.85;25.65;;;21.50;95.50;;;;;;5054060;28;20037;-81
2022/10/28 11:03:00;;;;;;;27.45;25.23;;;21.50;95.90;;;;;;5035744;28;20037;-81
2022/10/28 11:05:26;;;;;;;28.20;25.83;;;21.50;95.70;;;;;;5037613;28;20039;-81
2022/10/28 11:07:52;;;;;;;30.50;28.15;;;21.50;95.50;;;;;;5044098;28;20056;-81
2022/10/28 11:10:26;;;;;;;28.92;26.55;;;21.50;95.50;;;;;;5050736;28;20028;-80
2022/10/28 11:12:54;;;;;;;28.70;26.73;;;21.70;95.50;;;;;;5054148;28;20476;-80
2022/10/28 11:15:20;;;;;;;29.67;27.75;;;21.70;95.30;;;;;;5054085;28;20067;-81
2022/10/28 11:18:02;;;;;;;29.88;27.77;;;21.60;95.40;;;;;;5068242;28;20036;-80
2022/10/28 11:20:51;;;;;;;28.08;25.65;;;21.70;95.50;;;;;;5067511;28;20024;-80
2022/10/28 11:23:39;;;;;;;29.95;27.67;;;21.70;95.50;;;;;;5053007;28;20044;-81
2022/10/28 11:26:07;;;;;;;29.58;27.40;;;21.80;95.20;;;;;;5061884;28;20032;-80
2022/10/28 11:28:58;;;;;;;31.58;29.17;;;21.70;94.90;;;;;;5044186;28;20393;-80
2022/10/28 11:31:27;;;;;;;;;;;21.70;94.70;;;;;;5071180;28;20504;-80
2022/10/28 11:34:18;;;;;;;27.33;25.13;;;21.70;94.60;;;;;;5071387;28;19919;-79
2022/10/28 11:37:08;;;;;;;27.13;25.33;;;21.70;94.40;;;;;;5052682;28;20489;-80
2022/10/28 11:39:42;;;;;;;29.58;27.05;;;21.60;94.50;;;;;;5042739;28;20049;-80
2022/10/28 11:42:20;;;;;;;28.42;26.20;;;21.70;94.50;;;;;;5050547;28;20033;-80
2022/10/28 11:45:02;;;;;;;32.28;30.17;;;21.80;94.20;;;;;;5051532;28;20462;-80
2022/10/28 11:48:00;;;;;;;31.33;28.75;;;21.80;93.90;;;;;;5049481;28;20052;-80
2022/10/28 11:50:26;;;;;;;31.98;29.60;;;21.80;94.10;;;;;;5035844;28;20455;-80
2022/10/28 11:53:05;;;;;;;29.48;27.27;;;21.90;94.10;;;;;;5051553;28;20033;-80
2022/10/28 11:55:54;;;;;;;30.42;28.20;;;22.00;93.90;;;;;;5033384;28;20029;-80
2022/10/28 11:58:52;;;;;;;28.92;26.70;;;22.00;93.80;;;;;;5050277;28;20601;-80
2022/10/28 12:01:43;;;;;;;30.45;28.17;;;22.00;94.40;;;;;;5051365;28;20025;-81
2022/10/28 12:04:35;;;;;;;30.88;28.67;;;22.10;94.10;;;;;;5049801;28;20025;-80
2022/10/28 12:07:07;;;;;;;32.78;30.40;;;22.00;94.00;;;;;;5049256;28;20041;-80
2022/10/28 12:10:11;;;;;;;33.13;30.35;;;22.00;94.20;;;;;;5051224;28;20473;-80
2022/10/28 12:13:13;;;;;;;32.40;30.10;;;22.00;94.50;;;;;;5063033;28;20040;-80
2022/10/28 12:15:53;;;;;;;31.25;29.10;;;22.10;94.00;;;;;;5023575;28;20053;-81
2022/10/28 12:18:33;;;;;;;33.92;31.77;;;22.10;93.50;;;;;;5027290;28;20114;-80
2022/10/28 12:21:11;;;;;;;30.83;28.88;;;22.20;93.30;;;;;;4997974;28;20044;-80
2022/10/28 12:23:37;;;;;;;31.05;29.30;;;22.20;92.10;;;;;;5013118;28;20034;-82
2022/10/28 12:26:05;;;;;;;37.00;34.47;;;22.20;91.80;;;;;;4992746;28;20048;-82
2022/10/28 12:28:35;;;;;;;38.95;36.60;;;22.20;91.70;;;;;;5008715;28;20052;-81
2022/10/28 12:31:01;;;;;;;37.50;35.10;;;22.20;91.70;;;;;;4995036;28;20029;-82
2022/10/28 12:33:39;;;;;;;37.67;35.33;;;22.20;91.80;;;;;;5011590;28;20065;-82
2022/10/28 12:36:11;;;;;;;38.03;35.83;;;22.30;92.00;;;;;;4987331;28;20033;-82
2022/10/28 12:39:11;;;;;;;37.28;35.10;;;22.30;91.60;;;;;;5024495;28;20506;-81
2022/10/28 12:41:57;;;;;;;39.78;37.20;;;22.20;91.40;;;;;;5013487;28;20042;-81
2022/10/28 12:44:23;;;;;;;37.47;34.97;;;22.30;91.70;;;;;;5008566;28;20044;-82
2022/10/28 12:47:25;;;;;;;42.85;40.17;;;22.30;91.40;;;;;;4998306;28;20041;-82
2022/10/28 12:49:51;;;;;;;39.65;37.00;;;22.50;91.60;;;;;;5000660;28;20101;-81
2022/10/28 12:52:23;;;;;;;39.08;36.38;;;22.50;91.50;;;;;;5040527;28;20037;-81